createdAt,value
2019-03-22T00:00:01.910Z,66.78
2019-03-22T00:01:01.930Z,66.78
2019-03-22T00:02:01.889Z,66.68
2019-03-22T00:03:02.035Z,66.58
2019-03-22T00:04:01.876Z,67.20
2019-03-22T00:05:01.868Z,67.61
2019-03-22T00:06:01.873Z,66.82
2019-03-22T00:07:01.828Z,66.93
2019-03-22T00:08:01.819Z,66.72
2019-03-22T00:09:01.807Z,66.41
2019-03-22T00:10:01.796Z,66.51
2019-03-22T00:11:01.800Z,66.72
2019-03-22T00:12:04.180Z,66.72
2019-03-22T00:13:01.769Z,67.13
2019-03-22T00:14:01.756Z,67.34
2019-03-22T00:15:01.753Z,67.76
2019-03-22T00:16:01.748Z,67.55
2019-03-22T00:17:01.732Z,67.03
2019-03-22T00:18:01.714Z,67.34
2019-03-22T00:19:01.700Z,67.55
2019-03-22T00:20:01.689Z,67.86
2019-03-22T00:21:01.685Z,67.76
2019-03-22T00:22:01.677Z,67.55
2019-03-22T00:23:01.670Z,67.86
2019-03-22T00:24:01.654Z,68.07
2019-03-22T00:25:01.667Z,67.79
2019-03-22T00:26:01.626Z,68.10
2019-03-22T00:27:01.621Z,67.96
2019-03-22T00:28:01.608Z,67.86
2019-03-22T00:29:01.598Z,68.10
2019-03-22T00:30:01.594Z,67.89
2019-03-22T00:31:01.610Z,67.96
2019-03-22T00:32:01.562Z,67.34
2019-03-22T00:33:01.565Z,67.55
2019-03-22T00:34:01.560Z,67.68
2019-03-22T00:35:01.553Z,67.27
2019-03-22T00:36:01.519Z,67.27
2019-03-22T00:37:01.520Z,67.58
2019-03-22T00:38:01.503Z,67.27
2019-03-22T00:39:01.486Z,67.16
2019-03-22T00:40:01.486Z,67.47
2019-03-22T00:41:01.494Z,67.37
2019-03-22T00:42:01.478Z,67.99
2019-03-22T00:43:01.444Z,68.30
2019-03-22T00:44:01.433Z,68.20
2019-03-22T00:45:01.420Z,67.99
2019-03-22T00:46:01.416Z,67.89
2019-03-22T00:47:01.515Z,67.99
2019-03-22T00:48:01.398Z,68.10
2019-03-22T00:49:01.397Z,68.10
2019-03-22T00:50:01.388Z,68.20
2019-03-22T00:51:01.362Z,68.72
2019-03-22T00:52:01.349Z,68.62
2019-03-22T00:53:01.355Z,68.20
2019-03-22T00:54:01.324Z,68.41
2019-03-22T00:55:01.321Z,68.30
2019-03-22T00:56:01.322Z,68.10
2019-03-22T00:57:01.305Z,67.99
2019-03-22T00:58:01.287Z,68.20
2019-03-22T00:59:01.335Z,68.44
2019-03-22T01:00:01.259Z,68.23
2019-03-22T01:01:01.256Z,68.33
2019-03-22T01:02:01.272Z,68.54
2019-03-22T01:03:01.233Z,68.13
2019-03-22T01:04:01.220Z,68.33
2019-03-22T01:05:01.230Z,69.27
2019-03-22T01:06:01.209Z,68.85
2019-03-22T01:07:01.201Z,68.96
2019-03-22T01:08:01.191Z,68.96
2019-03-22T01:09:01.190Z,69.17
2019-03-22T01:10:01.158Z,69.06
2019-03-22T01:11:01.150Z,68.23
2019-03-22T01:12:01.142Z,68.02
2019-03-22T01:13:01.130Z,68.02
2019-03-22T01:14:01.207Z,68.13
2019-03-22T01:15:01.119Z,68.33
2019-03-22T01:16:01.121Z,68.54
2019-03-22T01:17:01.110Z,68.85
2019-03-22T01:18:01.082Z,68.99
2019-03-22T01:19:01.055Z,68.57
2019-03-22T01:20:01.050Z,68.99
2019-03-22T01:21:01.052Z,68.75
2019-03-22T01:22:01.037Z,68.57
2019-03-22T01:23:01.023Z,68.99
2019-03-22T01:24:01.021Z,68.68
2019-03-22T01:25:00.990Z,69.06
2019-03-22T01:26:00.983Z,68.99
2019-03-22T01:27:00.977Z,68.99
2019-03-22T01:28:00.961Z,68.78
2019-03-22T01:29:00.956Z,68.78
2019-03-22T01:30:00.942Z,68.88
2019-03-22T01:31:00.933Z,69.09
2019-03-22T01:32:00.971Z,68.88
2019-03-22T01:33:00.909Z,68.99
2019-03-22T01:34:00.899Z,69.20
2019-03-22T01:35:00.884Z,69.30
2019-03-22T01:36:00.876Z,69.09
2019-03-22T01:37:00.875Z,69.12
2019-03-22T01:38:00.853Z,69.20
2019-03-22T01:39:00.852Z,69.54
2019-03-22T01:40:00.842Z,69.51
2019-03-22T01:41:00.822Z,69.43
2019-03-22T01:42:00.833Z,69.51
2019-03-22T01:43:00.809Z,69.23
2019-03-22T01:44:00.791Z,69.33
2019-03-22T01:45:00.789Z,69.64
2019-03-22T01:46:00.892Z,69.12
2019-03-22T01:47:00.814Z,69.64
2019-03-22T01:48:00.763Z,69.54
2019-03-22T01:49:00.746Z,69.43
2019-03-22T01:50:00.728Z,69.64
2019-03-22T01:51:00.738Z,69.54
2019-03-22T01:52:00.733Z,69.54
2019-03-22T01:53:00.856Z,69.54
2019-03-22T01:54:00.682Z,69.33
2019-03-22T01:55:00.674Z,69.96
2019-03-22T01:56:00.682Z,69.64
2019-03-22T01:57:00.676Z,69.54
2019-03-22T01:58:00.637Z,69.54
2019-03-22T01:59:00.644Z,70.27
2019-03-22T02:00:00.618Z,70.37
2019-03-22T02:01:00.614Z,70.17
2019-03-22T02:02:00.608Z,69.64
2019-03-22T02:03:00.583Z,69.64
2019-03-22T02:04:00.578Z,69.64
2019-03-22T02:05:00.572Z,70.68
2019-03-22T02:06:00.553Z,70.37
2019-03-22T02:07:00.577Z,69.68
2019-03-22T02:08:00.548Z,69.64
2019-03-22T02:09:00.520Z,69.54
2019-03-22T02:10:00.521Z,70.37
2019-03-22T02:11:00.499Z,70.37
2019-03-22T02:12:00.499Z,70.37
2019-03-22T02:13:00.478Z,70.82
2019-03-22T02:14:00.474Z,70.79
2019-03-22T02:15:00.478Z,70.79
2019-03-22T02:16:00.486Z,70.82
2019-03-22T02:17:00.455Z,70.82
2019-03-22T02:18:00.424Z,70.82
2019-03-22T02:19:00.415Z,70.61
2019-03-22T02:20:00.406Z,70.40
2019-03-22T02:21:00.395Z,70.40
2019-03-22T02:22:00.433Z,70.51
2019-03-22T02:23:00.376Z,70.61
2019-03-22T02:24:00.374Z,71.03
2019-03-22T02:25:00.382Z,71.13
2019-03-22T02:26:00.348Z,71.44
2019-03-22T02:27:00.353Z,71.55
2019-03-22T02:28:04.370Z,71.55
2019-03-22T02:29:00.310Z,71.69
2019-03-22T02:30:00.546Z,71.48
2019-03-22T02:31:00.296Z,71.44
2019-03-22T02:32:00.300Z,71.79
2019-03-22T02:33:00.269Z,71.69
2019-03-22T02:34:00.255Z,72.10
2019-03-22T02:35:00.437Z,72.31
2019-03-22T02:36:00.231Z,72.10
2019-03-22T02:37:00.261Z,72.31
2019-03-22T02:38:00.238Z,71.92
2019-03-22T02:39:00.217Z,71.69
2019-03-22T02:40:00.570Z,71.89
2019-03-22T02:41:00.188Z,72.41
2019-03-22T02:42:00.184Z,72.62
2019-03-22T02:43:00.168Z,73.07
2019-03-22T02:44:00.283Z,72.76
2019-03-22T02:45:00.501Z,72.93
2019-03-22T02:46:00.139Z,72.86
2019-03-22T02:47:00.135Z,72.45
2019-03-22T02:48:00.108Z,72.97
2019-03-22T02:49:00.127Z,73.07
2019-03-22T02:50:00.469Z,72.55
2019-03-22T02:51:00.074Z,72.34
2019-03-22T02:52:00.085Z,72.66
2019-03-22T02:53:00.073Z,72.24
2019-03-22T02:54:00.042Z,72.86
2019-03-22T02:55:00.028Z,72.45
2019-03-22T02:56:00.135Z,72.55
2019-03-22T02:57:00.082Z,72.86
2019-03-22T02:58:00.011Z,72.69
2019-03-22T02:58:59.993Z,73.63
2019-03-22T03:00:00.011Z,72.58
2019-03-22T03:00:59.986Z,73.10
2019-03-22T03:01:59.970Z,73.00
2019-03-22T03:02:59.949Z,73.00
2019-03-22T03:03:59.933Z,73.52
2019-03-22T03:04:59.923Z,73.32
2019-03-22T03:05:59.934Z,73.52
2019-03-22T03:06:59.924Z,73.00
2019-03-22T03:07:59.901Z,73.00
2019-03-22T03:08:59.883Z,73.63
2019-03-22T03:09:59.871Z,73.63
2019-03-22T03:10:59.860Z,73.73
2019-03-22T03:11:59.879Z,73.86
2019-03-22T03:12:59.835Z,73.83
2019-03-22T03:13:59.829Z,74.18
2019-03-22T03:14:59.831Z,73.52
2019-03-22T03:15:59.806Z,74.49
2019-03-22T03:16:59.803Z,73.52
2019-03-22T03:17:59.821Z,73.83
2019-03-22T03:18:59.771Z,73.83
2019-03-22T03:19:59.765Z,74.35
2019-03-22T03:20:59.780Z,74.15
2019-03-22T03:21:59.762Z,74.66
2019-03-22T03:22:59.738Z,74.25
2019-03-22T03:23:59.735Z,74.56
2019-03-22T03:24:59.711Z,74.04
2019-03-22T03:25:59.702Z,74.15
2019-03-22T03:26:59.697Z,74.25
2019-03-22T03:27:59.737Z,74.04
2019-03-22T03:28:59.727Z,74.35
2019-03-22T03:29:59.766Z,74.18
2019-03-22T03:30:59.840Z,74.25
2019-03-22T03:31:59.644Z,74.15
2019-03-22T03:32:59.660Z,74.35
2019-03-22T03:33:59.635Z,74.15
2019-03-22T03:34:59.607Z,74.35
2019-03-22T03:35:59.617Z,74.56
2019-03-22T03:36:59.585Z,74.35
2019-03-22T03:37:59.606Z,74.56
2019-03-22T03:38:59.556Z,74.25
2019-03-22T03:39:59.553Z,74.60
2019-03-22T03:40:59.553Z,74.56
2019-03-22T03:41:59.539Z,74.25
2019-03-22T03:42:59.516Z,74.15
2019-03-22T03:43:59.514Z,74.18
2019-03-22T03:44:59.508Z,74.56
2019-03-22T03:45:59.515Z,74.56
2019-03-22T03:46:59.473Z,74.15
2019-03-22T03:47:59.463Z,74.04
2019-03-22T03:48:59.459Z,74.07
2019-03-22T03:49:59.461Z,74.66
2019-03-22T03:50:59.443Z,74.39
2019-03-22T03:51:59.421Z,74.18
2019-03-22T03:52:59.431Z,73.86
2019-03-22T03:53:59.396Z,73.83
2019-03-22T03:54:59.421Z,74.91
2019-03-22T03:55:59.383Z,74.70
2019-03-22T03:56:59.373Z,74.49
2019-03-22T03:57:59.357Z,74.70
2019-03-22T03:58:59.350Z,74.60
2019-03-22T03:59:59.352Z,74.80
2019-03-22T04:00:59.328Z,74.60
2019-03-22T04:01:59.353Z,74.70
2019-03-22T04:02:59.309Z,74.80
2019-03-22T04:03:59.289Z,74.49
2019-03-22T04:04:59.336Z,75.01
2019-03-22T04:05:59.273Z,74.80
2019-03-22T04:06:59.273Z,74.70
2019-03-22T04:07:59.272Z,74.70
2019-03-22T04:08:59.256Z,74.60
2019-03-22T04:09:59.241Z,74.80
2019-03-22T04:10:59.233Z,74.60
2019-03-22T04:11:59.220Z,74.80
2019-03-22T04:12:59.227Z,74.49
2019-03-22T04:13:59.183Z,74.60
2019-03-22T04:14:59.177Z,74.70
2019-03-22T04:15:59.225Z,74.70
2019-03-22T04:16:59.154Z,74.70
2019-03-22T04:17:59.222Z,74.60
2019-03-22T04:18:59.134Z,74.80
2019-03-22T04:19:59.145Z,74.91
2019-03-22T04:20:59.130Z,74.84
2019-03-22T04:21:59.129Z,74.42
2019-03-22T04:22:59.097Z,74.60
2019-03-22T04:23:59.087Z,74.70
2019-03-22T04:24:59.061Z,74.74
2019-03-22T04:25:59.051Z,74.70
2019-03-22T04:26:59.041Z,74.70
2019-03-22T04:27:59.056Z,74.70
2019-03-22T04:29:07.145Z,74.74
2019-03-22T04:30:00.020Z,74.84
2019-03-22T04:30:59.002Z,74.63
2019-03-22T04:31:58.998Z,74.74
2019-03-22T04:32:59.132Z,74.84
2019-03-22T04:33:58.983Z,75.15
2019-03-22T04:34:58.966Z,75.05
2019-03-22T04:35:58.951Z,75.15
2019-03-22T04:36:58.938Z,75.15
2019-03-22T04:37:58.938Z,75.46
2019-03-22T04:38:58.916Z,75.26
2019-03-22T04:39:58.910Z,75.36
2019-03-22T04:40:58.902Z,75.57
2019-03-22T04:41:58.901Z,75.46
2019-03-22T04:42:58.913Z,75.46
2019-03-22T04:43:58.866Z,75.57
2019-03-22T04:44:58.853Z,75.57
2019-03-22T04:45:58.839Z,75.57
2019-03-22T04:46:58.834Z,75.57
2019-03-22T04:47:58.828Z,75.60
2019-03-22T04:48:58.810Z,75.60
2019-03-22T04:49:58.802Z,75.78
2019-03-22T04:50:58.831Z,75.71
2019-03-22T04:51:58.784Z,75.71
2019-03-22T04:52:58.793Z,75.92
2019-03-22T04:53:58.752Z,75.71
2019-03-22T04:54:58.800Z,75.60
2019-03-22T04:55:58.732Z,75.50
2019-03-22T04:56:58.724Z,75.71
2019-03-22T04:57:58.722Z,75.81
2019-03-22T04:58:58.703Z,75.81
2019-03-22T04:59:58.715Z,75.92
2019-03-22T05:00:58.694Z,76.23
2019-03-22T05:01:58.686Z,75.81
2019-03-22T05:02:58.688Z,75.71
2019-03-22T05:03:59.217Z,76.02
2019-03-22T05:04:58.644Z,76.02
2019-03-22T05:05:58.624Z,76.23
2019-03-22T05:06:58.617Z,76.23
2019-03-22T05:07:58.626Z,76.12
2019-03-22T05:08:58.605Z,76.23
2019-03-22T05:09:58.616Z,76.33
2019-03-22T05:10:58.583Z,76.65
2019-03-22T05:11:58.560Z,76.43
2019-03-22T05:12:58.577Z,76.43
2019-03-22T05:13:58.541Z,76.65
2019-03-22T05:14:58.596Z,76.54
2019-03-22T05:15:58.520Z,76.68
2019-03-22T05:16:58.514Z,76.65
2019-03-22T05:17:58.517Z,76.65
2019-03-22T05:18:58.491Z,76.96
2019-03-22T05:19:58.510Z,76.96
2019-03-22T05:20:58.467Z,76.75
2019-03-22T05:21:58.456Z,76.86
2019-03-22T05:22:58.600Z,77.17
2019-03-22T05:23:58.498Z,77.27
2019-03-22T05:24:58.525Z,77.06
2019-03-22T05:25:58.435Z,77.27
2019-03-22T05:26:58.400Z,77.27
2019-03-22T05:27:58.416Z,77.27
2019-03-22T05:28:58.378Z,77.58
2019-03-22T05:29:58.375Z,77.37
2019-03-22T05:30:58.359Z,77.37
2019-03-22T05:31:58.350Z,77.69
2019-03-22T05:32:58.346Z,77.62
2019-03-22T05:33:58.334Z,78.04
2019-03-22T05:34:58.330Z,77.80
2019-03-22T05:35:58.307Z,77.58
2019-03-22T05:36:58.293Z,77.90
2019-03-22T05:37:58.346Z,77.48
2019-03-22T05:38:59.143Z,77.58
2019-03-22T05:39:58.373Z,77.58
2019-03-22T05:40:58.469Z,77.69
2019-03-22T05:41:58.259Z,77.58
2019-03-22T05:42:58.240Z,77.48
2019-03-22T05:43:58.230Z,77.48
2019-03-22T05:44:58.267Z,77.37
2019-03-22T05:45:58.201Z,77.27
2019-03-22T05:46:58.230Z,77.58
2019-03-22T05:47:58.197Z,77.76
2019-03-22T05:48:58.171Z,77.58
2019-03-22T05:49:58.155Z,77.45
2019-03-22T05:50:58.171Z,77.66
2019-03-22T05:51:58.140Z,77.76
2019-03-22T05:52:58.134Z,77.86
2019-03-22T05:53:58.137Z,77.55
2019-03-22T05:54:58.102Z,77.76
2019-03-22T05:55:58.094Z,77.76
2019-03-22T05:56:58.091Z,77.23
2019-03-22T05:57:58.071Z,76.99
2019-03-22T05:58:58.089Z,77.10
2019-03-22T05:59:58.052Z,76.89
2019-03-22T06:00:58.048Z,76.89
2019-03-22T06:01:58.047Z,76.78
2019-03-22T06:02:58.017Z,76.57
2019-03-22T06:03:58.055Z,76.78
2019-03-22T06:04:58.029Z,76.65
2019-03-22T06:05:58.002Z,76.26
2019-03-22T06:06:58.042Z,75.71
2019-03-22T06:07:57.966Z,75.60
2019-03-22T06:08:57.956Z,75.40
2019-03-22T06:09:57.969Z,74.95
2019-03-22T06:10:57.931Z,75.05
2019-03-22T06:11:57.945Z,75.05
2019-03-22T06:12:57.910Z,74.74
2019-03-22T06:13:57.900Z,74.95
2019-03-22T06:14:57.890Z,74.84
2019-03-22T06:15:57.881Z,75.15
2019-03-22T06:16:57.874Z,74.84
2019-03-22T06:17:57.876Z,74.60
2019-03-22T06:18:57.861Z,74.74
2019-03-22T06:19:57.835Z,74.63
2019-03-22T06:20:57.863Z,73.97
2019-03-22T06:21:57.839Z,74.29
2019-03-22T06:22:57.807Z,74.39
2019-03-22T06:23:57.826Z,74.70
2019-03-22T06:24:57.780Z,74.39
2019-03-22T06:25:57.838Z,73.77
2019-03-22T06:26:57.769Z,73.73
2019-03-22T06:27:57.761Z,73.00
2019-03-22T06:28:57.966Z,73.32
2019-03-22T06:29:57.785Z,73.32
2019-03-22T06:30:57.780Z,73.11
2019-03-22T06:31:57.738Z,72.34
2019-03-22T06:32:57.694Z,72.69
2019-03-22T06:33:57.683Z,72.24
2019-03-22T06:34:57.721Z,71.83
2019-03-22T06:35:57.671Z,71.83
2019-03-22T06:36:57.700Z,72.14
2019-03-22T06:37:57.644Z,72.24
2019-03-22T06:38:57.636Z,72.14
2019-03-22T06:39:57.625Z,71.48
2019-03-22T06:40:57.636Z,71.59
2019-03-22T06:41:57.602Z,71.24
2019-03-22T06:42:57.596Z,71.34
2019-03-22T06:43:57.618Z,71.34
2019-03-22T06:44:57.574Z,71.00
2019-03-22T06:45:57.638Z,70.90
2019-03-22T06:46:57.544Z,70.69
2019-03-22T06:47:57.540Z,69.86
2019-03-22T06:48:57.538Z,69.83
2019-03-22T06:49:57.553Z,69.83
2019-03-22T06:50:57.655Z,69.21
2019-03-22T06:51:57.491Z,69.42
2019-03-22T06:52:57.490Z,69.27
2019-03-22T06:53:57.475Z,69.27
2019-03-22T06:54:57.478Z,69.07
2019-03-22T06:55:57.476Z,68.52
2019-03-22T06:56:57.438Z,68.83
2019-03-22T06:57:57.426Z,68.73
2019-03-22T06:58:57.449Z,68.80
2019-03-22T07:00:06.494Z,68.49
2019-03-22T07:00:58.398Z,67.97
2019-03-22T07:01:57.431Z,67.24
2019-03-22T07:02:57.373Z,67.24
2019-03-22T07:03:57.367Z,66.72
2019-03-22T07:04:57.381Z,66.59
2019-03-22T07:05:57.454Z,67.00
2019-03-22T07:06:57.330Z,65.77
2019-03-22T07:07:57.338Z,66.15
2019-03-22T07:08:57.309Z,65.77
2019-03-22T07:09:57.317Z,66.25
2019-03-22T07:10:57.335Z,66.25
2019-03-22T07:11:57.344Z,65.42
2019-03-22T07:12:57.287Z,65.60
2019-03-22T07:13:57.269Z,64.98
2019-03-22T07:14:57.261Z,64.87
2019-03-22T07:15:57.233Z,65.39
2019-03-22T07:16:58.943Z,65.08
2019-03-22T07:17:57.214Z,65.36
2019-03-22T07:18:57.208Z,64.74
2019-03-22T07:19:57.202Z,64.74
2019-03-22T07:20:57.192Z,63.89
2019-03-22T07:21:57.168Z,63.57
2019-03-22T07:22:57.185Z,64.40
2019-03-22T07:23:57.178Z,64.30
2019-03-22T07:24:57.149Z,64.71
2019-03-22T07:25:57.127Z,64.40
2019-03-22T07:26:57.122Z,64.78
2019-03-22T07:27:57.249Z,64.27
2019-03-22T07:28:57.136Z,64.48
2019-03-22T07:29:57.137Z,64.65
2019-03-22T07:30:57.080Z,63.93
2019-03-22T07:31:57.066Z,64.14
2019-03-22T07:32:57.060Z,64.21
2019-03-22T07:33:57.047Z,63.39
2019-03-22T07:34:57.061Z,63.69
2019-03-22T07:35:57.023Z,62.84
2019-03-22T07:36:57.375Z,63.25
2019-03-22T07:37:57.051Z,62.43
2019-03-22T07:38:56.990Z,61.60
2019-03-22T07:39:56.988Z,62.43
2019-03-22T07:40:56.990Z,62.92
2019-03-22T07:41:56.959Z,62.92
2019-03-22T07:42:56.961Z,62.81
2019-03-22T07:43:56.939Z,62.71
2019-03-22T07:44:56.963Z,62.40
2019-03-22T07:45:56.919Z,61.16
2019-03-22T07:46:56.905Z,60.93
2019-03-22T07:47:56.913Z,61.13
2019-03-22T07:48:56.884Z,61.24
2019-03-22T07:49:57.189Z,61.33
2019-03-22T07:50:56.875Z,61.75
2019-03-22T07:51:56.938Z,61.21
2019-03-22T07:52:56.918Z,61.21
2019-03-22T07:53:56.951Z,59.97
2019-03-22T07:54:56.855Z,59.66
2019-03-22T07:55:56.809Z,61.28
2019-03-22T07:56:56.797Z,60.15
2019-03-22T07:57:56.804Z,60.46
2019-03-22T07:58:56.811Z,59.63
2019-03-22T07:59:56.837Z,59.91
2019-03-22T08:00:56.861Z,59.61
2019-03-22T08:01:56.745Z,59.70
2019-03-22T08:02:56.733Z,58.26
2019-03-22T08:03:56.721Z,57.75
2019-03-22T08:04:56.756Z,57.42
2019-03-22T08:05:56.699Z,56.90
2019-03-22T08:06:56.689Z,58.52
2019-03-22T08:07:56.680Z,58.31
2019-03-22T08:08:56.682Z,57.08
2019-03-22T08:09:56.766Z,56.54
2019-03-22T08:10:56.649Z,56.31
2019-03-22T08:11:56.654Z,56.21
2019-03-22T08:12:56.630Z,56.18
2019-03-22T08:13:56.623Z,55.74
2019-03-22T08:14:56.616Z,54.61
2019-03-22T08:15:57.661Z,53.38
2019-03-22T08:16:56.593Z,52.44
2019-03-22T08:17:57.230Z,53.44
2019-03-22T08:18:56.559Z,53.64
2019-03-22T08:19:57.333Z,52.08
2019-03-22T08:20:56.559Z,52.36
2019-03-22T08:21:56.539Z,51.31
2019-03-22T08:22:56.516Z,50.78
2019-03-22T08:23:56.533Z,50.24
2019-03-22T08:24:56.537Z,49.50
2019-03-22T08:25:56.506Z,49.38
2019-03-22T08:26:56.581Z,47.39
2019-03-22T08:27:56.472Z,45.94
2019-03-22T08:28:56.464Z,45.40
2019-03-22T08:29:56.447Z,44.65
2019-03-22T08:30:56.449Z,44.43
2019-03-22T08:31:56.423Z,45.32
2019-03-22T08:32:56.409Z,44.36
2019-03-22T08:33:56.415Z,43.43
2019-03-22T08:34:56.391Z,43.00
2019-03-22T08:35:56.423Z,41.25
2019-03-22T08:36:56.410Z,40.50
2019-03-22T08:37:56.384Z,40.09
2019-03-22T08:38:56.360Z,39.78
2019-03-22T08:39:56.405Z,37.34
2019-03-22T08:40:56.326Z,39.03
2019-03-22T08:41:56.312Z,39.21
2019-03-22T08:42:56.303Z,38.79
2019-03-22T08:43:56.299Z,37.25
2019-03-22T08:44:56.281Z,37.64
2019-03-22T08:45:56.269Z,36.71
2019-03-22T08:46:56.289Z,35.80
2019-03-22T08:47:56.291Z,34.47
2019-03-22T08:48:56.311Z,34.95
2019-03-22T08:49:56.259Z,35.26
2019-03-22T08:50:56.214Z,34.64
2019-03-22T08:51:56.224Z,34.44
2019-03-22T08:52:56.207Z,34.42
2019-03-22T08:53:56.183Z,35.24
2019-03-22T08:54:56.214Z,34.94
2019-03-22T08:55:56.262Z,35.04
2019-03-22T08:56:56.186Z,34.22
2019-03-22T08:57:56.137Z,34.12
2019-03-22T08:58:56.129Z,33.72
2019-03-22T08:59:56.119Z,34.61
2019-03-22T09:00:57.897Z,34.00
2019-03-22T09:01:56.098Z,33.09
2019-03-22T09:02:56.112Z,34.39
2019-03-22T09:03:56.147Z,33.07
2019-03-22T09:04:56.072Z,33.18
2019-03-22T09:05:56.067Z,33.06
2019-03-22T09:06:58.855Z,33.36
2019-03-22T09:07:56.046Z,32.15
2019-03-22T09:08:56.015Z,32.14
2019-03-22T09:09:56.006Z,33.35
2019-03-22T09:10:56.059Z,33.35
2019-03-22T09:11:55.984Z,33.64
2019-03-22T09:12:55.977Z,32.41
2019-03-22T09:13:56.045Z,31.10
2019-03-22T09:14:55.957Z,31.39
2019-03-22T09:15:55.970Z,31.48
2019-03-22T09:16:55.933Z,31.39
2019-03-22T09:17:56.031Z,33.00
2019-03-22T09:18:55.912Z,31.79
2019-03-22T09:19:55.984Z,31.29
2019-03-22T09:20:55.901Z,33.10
2019-03-22T09:21:55.882Z,32.09
2019-03-22T09:22:55.882Z,31.17
2019-03-22T09:23:55.877Z,32.28
2019-03-22T09:24:55.941Z,32.68
2019-03-22T09:25:55.837Z,32.98
2019-03-22T09:26:55.862Z,30.96
2019-03-22T09:27:55.819Z,31.37
2019-03-22T09:28:55.826Z,30.97
2019-03-22T09:29:55.802Z,32.28
2019-03-22T09:30:55.820Z,31.88
2019-03-22T09:31:55.785Z,31.49
2019-03-22T09:32:55.824Z,32.50
2019-03-22T09:33:55.750Z,31.79
2019-03-22T09:34:55.765Z,31.79
2019-03-22T09:35:55.845Z,31.49
2019-03-22T09:36:55.725Z,31.59
2019-03-22T09:37:55.741Z,32.31
2019-03-22T09:38:55.729Z,31.09
2019-03-22T09:39:55.702Z,32.31
2019-03-22T09:40:55.751Z,28.89
2019-03-22T09:41:55.691Z,29.98
2019-03-22T09:42:55.708Z,30.08
2019-03-22T09:43:55.680Z,29.17
2019-03-22T09:44:55.689Z,28.69
2019-03-22T09:45:55.625Z,28.97
2019-03-22T09:46:55.657Z,30.10
2019-03-22T09:47:55.602Z,30.48
2019-03-22T09:48:55.598Z,30.58
2019-03-22T09:49:55.599Z,28.96
2019-03-22T09:50:55.593Z,27.55
2019-03-22T09:51:55.614Z,28.86
2019-03-22T09:52:55.580Z,28.85
2019-03-22T09:53:55.718Z,28.33
2019-03-22T09:54:55.599Z,26.32
2019-03-22T09:55:55.532Z,29.24
2019-03-22T09:56:55.539Z,27.53
2019-03-22T09:57:55.508Z,29.63
2019-03-22T09:58:55.527Z,27.01
2019-03-22T09:59:55.497Z,25.39
2019-03-22T10:00:55.551Z,27.40
2019-03-22T10:01:55.454Z,26.68
2019-03-22T10:02:55.445Z,24.88
2019-03-22T10:03:55.494Z,25.98
2019-03-22T10:04:55.428Z,26.67
2019-03-22T10:05:55.435Z,26.27
2019-03-22T10:06:55.451Z,26.07
2019-03-22T10:07:55.407Z,25.97
2019-03-22T10:08:55.450Z,26.35
2019-03-22T10:09:55.390Z,24.65
2019-03-22T10:10:55.371Z,25.24
2019-03-22T10:11:55.348Z,26.04
2019-03-22T10:12:55.370Z,25.14
2019-03-22T10:13:55.332Z,25.34
2019-03-22T10:14:55.321Z,26.95
2019-03-22T10:15:55.677Z,25.53
2019-03-22T10:16:55.336Z,27.23
2019-03-22T10:17:55.288Z,25.02
2019-03-22T10:18:55.305Z,25.82
2019-03-22T10:19:55.405Z,25.51
2019-03-22T10:20:55.285Z,25.21
2019-03-22T10:21:55.293Z,24.21
2019-03-22T10:22:55.239Z,23.71
2019-03-22T10:23:55.243Z,25.11
2019-03-22T10:24:55.251Z,25.51
2019-03-22T10:25:55.230Z,25.11
2019-03-22T10:26:55.210Z,25.52
2019-03-22T10:27:55.263Z,27.32
2019-03-22T10:28:55.198Z,25.92
2019-03-22T10:29:55.172Z,26.32
2019-03-22T10:30:55.190Z,25.12
2019-03-22T10:31:55.199Z,24.72
2019-03-22T10:32:55.136Z,25.21
2019-03-22T10:33:55.142Z,25.81
2019-03-22T10:34:55.125Z,25.71
2019-03-22T10:35:55.122Z,24.51
2019-03-22T10:36:55.118Z,24.90
2019-03-22T10:38:00.531Z,24.79
2019-03-22T10:38:56.132Z,24.88
2019-03-22T10:39:55.069Z,23.49
2019-03-22T10:40:55.058Z,23.49
2019-03-22T10:41:55.047Z,24.27
2019-03-22T10:42:55.074Z,25.17
2019-03-22T10:43:55.047Z,25.67
2019-03-22T10:44:55.024Z,24.57
2019-03-22T10:45:55.062Z,24.88
2019-03-22T10:46:55.037Z,24.87
2019-03-22T10:47:54.994Z,24.67
2019-03-22T10:48:54.970Z,24.38
2019-03-22T10:49:55.013Z,25.28
2019-03-22T10:50:54.983Z,23.49
2019-03-22T10:51:57.785Z,25.87
2019-03-22T10:52:55.067Z,25.17
2019-03-22T10:53:54.923Z,25.78
2019-03-22T10:54:54.983Z,25.09
2019-03-22T10:55:54.894Z,25.87
2019-03-22T10:56:54.889Z,25.77
2019-03-22T10:57:55.601Z,25.57
2019-03-22T10:58:54.864Z,25.67
2019-03-22T10:59:54.884Z,25.66
2019-03-22T11:00:54.852Z,27.36
2019-03-22T11:02:03.188Z,27.14
2019-03-22T11:02:55.823Z,26.73
2019-03-22T11:03:54.845Z,27.93
2019-03-22T11:04:54.823Z,25.82
2019-03-22T11:05:54.801Z,23.63
2019-03-22T11:06:54.795Z,24.81
2019-03-22T11:07:54.775Z,23.32
2019-03-22T11:08:54.763Z,24.62
2019-03-22T11:09:54.757Z,23.23
2019-03-22T11:10:54.748Z,24.52
2019-03-22T11:11:54.741Z,25.12
2019-03-22T11:12:54.726Z,25.92
2019-03-22T11:13:54.713Z,26.42
2019-03-22T11:14:54.718Z,26.22
2019-03-22T11:15:54.702Z,27.02
2019-03-22T11:16:54.704Z,25.62
2019-03-22T11:17:54.674Z,25.72
2019-03-22T11:18:54.659Z,24.73
2019-03-22T11:19:54.663Z,24.02
2019-03-22T11:21:04.514Z,24.63
2019-03-22T11:21:55.645Z,25.82
2019-03-22T11:22:54.624Z,25.43
2019-03-22T11:23:54.640Z,24.93
2019-03-22T11:24:54.604Z,25.63
2019-03-22T11:26:03.841Z,25.82
2019-03-22T11:26:55.589Z,24.92
2019-03-22T11:27:54.572Z,24.91
2019-03-22T11:28:54.561Z,23.32
2019-03-22T11:29:54.592Z,23.21
2019-03-22T11:31:01.046Z,25.00
2019-03-22T11:31:55.531Z,25.90
2019-03-22T11:32:54.532Z,23.90
2019-03-22T11:33:54.532Z,23.60
2019-03-22T11:34:54.506Z,24.59
2019-03-22T11:35:54.512Z,23.90
2019-03-22T11:36:54.483Z,23.10
2019-03-22T11:37:54.477Z,23.69
2019-03-22T11:38:54.458Z,23.19
2019-03-22T11:39:54.453Z,24.89
2019-03-22T11:40:54.439Z,24.89
2019-03-22T11:41:54.432Z,25.89
2019-03-22T11:42:54.422Z,25.87
2019-03-22T11:43:54.418Z,25.37
2019-03-22T11:44:54.482Z,25.38
2019-03-22T11:45:54.395Z,25.89
2019-03-22T11:46:54.388Z,24.79
2019-03-22T11:47:54.404Z,24.48
2019-03-22T11:48:54.359Z,26.08
2019-03-22T11:49:54.348Z,24.99
2019-03-22T11:50:54.338Z,24.69
2019-03-22T11:51:54.341Z,25.20
2019-03-22T11:52:54.327Z,26.29
2019-03-22T11:53:54.325Z,25.00
2019-03-22T11:54:54.301Z,25.40
2019-03-22T11:55:54.290Z,25.99
2019-03-22T11:56:54.295Z,25.81
2019-03-22T11:57:54.269Z,26.32
2019-03-22T11:58:54.255Z,26.52
2019-03-22T11:59:54.245Z,25.63
2019-03-22T12:00:54.232Z,25.73
2019-03-22T12:01:54.266Z,26.63
2019-03-22T12:02:54.224Z,26.03
2019-03-22T12:03:54.212Z,25.15
2019-03-22T12:04:54.198Z,26.94
2019-03-22T12:05:54.180Z,25.05
2019-03-22T12:06:54.215Z,26.15
2019-03-22T12:07:54.171Z,26.46
2019-03-22T12:08:54.191Z,27.26
2019-03-22T12:09:54.142Z,26.75
2019-03-22T12:10:54.170Z,26.56
2019-03-22T12:11:54.142Z,26.94
2019-03-22T12:12:54.140Z,25.55
2019-03-22T12:13:54.167Z,26.54
2019-03-22T12:14:54.103Z,26.14
2019-03-22T12:15:54.687Z,26.43
2019-03-22T12:16:54.130Z,26.23
2019-03-22T12:17:54.201Z,27.51
2019-03-22T12:18:54.053Z,27.51
2019-03-22T12:19:54.041Z,28.61
2019-03-22T12:20:54.049Z,26.90
2019-03-22T12:21:54.030Z,27.09
2019-03-22T12:22:54.011Z,27.89
2019-03-22T12:23:54.015Z,27.49
2019-03-22T12:24:53.984Z,25.00
2019-03-22T12:25:53.975Z,25.49
2019-03-22T12:26:53.967Z,24.49
2019-03-22T12:27:53.958Z,25.89
2019-03-22T12:28:53.948Z,26.67
2019-03-22T12:29:53.957Z,25.87
2019-03-22T12:30:53.961Z,27.55
2019-03-22T12:31:53.916Z,25.26
2019-03-22T12:32:53.912Z,23.26
2019-03-22T12:33:53.901Z,24.46
2019-03-22T12:34:53.893Z,26.82
2019-03-22T12:35:54.038Z,25.54
2019-03-22T12:36:53.896Z,25.04
2019-03-22T12:37:53.870Z,25.02
2019-03-22T12:38:53.845Z,24.23
2019-03-22T12:39:53.840Z,25.71
2019-03-22T12:40:53.830Z,24.72
2019-03-22T12:41:53.816Z,24.22
2019-03-22T12:42:53.814Z,24.62
2019-03-22T12:43:53.795Z,24.62
2019-03-22T12:44:53.804Z,24.82
2019-03-22T12:45:53.775Z,24.32
2019-03-22T12:46:53.768Z,23.82
2019-03-22T12:47:53.778Z,23.93
2019-03-22T12:48:53.747Z,23.33
2019-03-22T12:49:53.738Z,23.34
2019-03-22T12:50:53.777Z,24.73
2019-03-22T12:51:53.716Z,25.23